sensor_id;sensor_type;location;lat;lon;timestamp;pressure;altitude;pressure_sealevel;temperature;humidity
9139;BME280;4604;48.616;9.548;2022-09-01T00:02:06;97136.25;;;15.46;100.00
9139;BME280;4604;48.616;9.548;2022-09-01T00:04:34;97131.56;;;15.40;100.00
9139;BME280;4604;48.616;9.548;2022-09-01T00:07:03;97127.75;;;15.34;100.00
9139;BME280;4604;48.616;9.548;2022-09-01T00:09:30;97130.91;;;15.30;100.00
9139;BME280;4604;48.616;9.548;2022-09-01T00:11:57;97124.41;;;15.24;100.00
9139;BME280;4604;48.616;9.548;2022-09-01T00:14:28;97117.44;;;15.48;100.00
9139;BME280;4604;48.616;9.548;2022-09-01T00:16:55;97126.41;;;15.30;100.00
9139;BME280;4604;48.616;9.548;2022-09-01T00:19:23;97124.22;;;15.26;100.00
9139;BME280;4604;48.616;9.548;2022-09-01T00:21:50;97127.72;;;15.26;100.00
9139;BME280;4604;48.616;9.548;2022-09-01T00:24:17;97130.72;;;15.23;100.00
9139;BME280;4604;48.616;9.548;2022-09-01T00:26:45;97128.25;;;15.30;100.00
9139;BME280;4604;48.616;9.548;2022-09-01T00:29:12;97120.75;;;15.25;100.00
9139;BME280;4604;48.616;9.548;2022-09-01T00:31:41;97130.22;;;15.28;100.00
9139;BME280;4604;48.616;9.548;2022-09-01T00:34:07;97128.41;;;15.36;100.00
9139;BME280;4604;48.616;9.548;2022-09-01T00:36:34;97119.59;;;15.28;100.00
9139;BME280;4604;48.616;9.548;2022-09-01T00:39:02;97117.41;;;15.23;100.00
9139;BME280;4604;48.616;9.548;2022-09-01T00:41:31;97117.59;;;15.22;100.00
9139;BME280;4604;48.616;9.548;2022-09-01T00:44:00;97111.13;;;15.24;100.00
9139;BME280;4604;48.616;9.548;2022-09-01T00:46:31;97119.41;;;15.21;100.00
9139;BME280;4604;48.616;9.548;2022-09-01T00:49:01;97115.25;;;15.18;100.00
9139;BME280;4604;48.616;9.548;2022-09-01T00:51:29;97097.47;;;15.19;100.00
9139;BME280;4604;48.616;9.548;2022-09-01T00:53:57;97119.91;;;15.25;100.00
9139;BME280;4604;48.616;9.548;2022-09-01T00:56:24;97102.44;;;15.14;100.00
9139;BME280;4604;48.616;9.548;2022-09-01T00:58:52;97122.25;;;15.28;100.00
9139;BME280;4604;48.616;9.548;2022-09-01T01:01:19;97112.97;;;15.32;100.00
9139;BME280;4604;48.616;9.548;2022-09-01T01:03:47;97113.78;;;15.40;100.00
9139;BME280;4604;48.616;9.548;2022-09-01T01:06:16;97062.41;;;15.15;100.00
9139;BME280;4604;48.616;9.548;2022-09-01T01:08:46;97111.47;;;15.37;100.00
9139;BME280;4604;48.616;9.548;2022-09-01T01:11:27;97114.59;;;15.33;100.00
9139;BME280;4604;48.616;9.548;2022-09-01T01:13:56;97112.78;;;15.41;100.00
9139;BME280;4604;48.616;9.548;2022-09-01T01:16:26;97112.47;;;15.36;100.00
9139;BME280;4604;48.616;9.548;2022-09-01T01:18:53;97095.50;;;15.29;100.00
9139;BME280;4604;48.616;9.548;2022-09-01T01:21:24;97117.78;;;15.36;100.00
9139;BME280;4604;48.616;9.548;2022-09-01T01:24:22;97122.09;;;15.37;100.00
9139;BME280;4604;48.616;9.548;2022-09-01T01:26:49;97121.41;;;15.35;100.00
9139;BME280;4604;48.616;9.548;2022-09-01T01:29:16;97114.13;;;15.37;100.00
9139;BME280;4604;48.616;9.548;2022-09-01T01:31:44;97100.16;;;15.27;100.00
9139;BME280;4604;48.616;9.548;2022-09-01T01:34:11;97112.28;;;15.30;100.00
9139;BME280;4604;48.616;9.548;2022-09-01T01:36:39;97109.63;;;15.30;100.00
9139;BME280;4604;48.616;9.548;2022-09-01T01:39:09;97100.13;;;15.19;100.00
9139;BME280;4604;48.616;9.548;2022-09-01T01:41:39;97115.28;;;15.27;100.00
9139;BME280;4604;48.616;9.548;2022-09-01T01:44:11;97113.25;;;15.20;100.00
9139;BME280;4604;48.616;9.548;2022-09-01T01:46:42;97116.75;;;15.21;100.00
9139;BME280;4604;48.616;9.548;2022-09-01T01:49:09;97119.25;;;15.23;100.00
9139;BME280;4604;48.616;9.548;2022-09-01T01:51:38;97118.25;;;15.24;100.00
9139;BME280;4604;48.616;9.548;2022-09-01T01:54:05;97124.56;;;15.23;100.00
9139;BME280;4604;48.616;9.548;2022-09-01T01:56:33;97111.91;;;15.16;100.00
9139;BME280;4604;48.616;9.548;2022-09-01T01:59:05;97124.41;;;15.24;100.00
9139;BME280;4604;48.616;9.548;2022-09-01T02:01:32;97123.59;;;15.32;100.00
9139;BME280;4604;48.616;9.548;2022-09-01T02:03:59;97122.44;;;15.43;100.00
9139;BME280;4604;48.616;9.548;2022-09-01T02:06:31;97131.59;;;15.65;100.00
9139;BME280;4604;48.616;9.548;2022-09-01T02:08:58;97116.44;;;15.65;100.00
9139;BME280;4604;48.616;9.548;2022-09-01T02:11:28;97120.59;;;15.68;100.00
9139;BME280;4604;48.616;9.548;2022-09-01T02:13:59;97113.94;;;15.55;100.00
9139;BME280;4604;48.616;9.548;2022-09-01T02:16:29;97116.78;;;15.46;100.00
9139;BME280;4604;48.616;9.548;2022-09-01T02:18:58;97117.44;;;15.39;100.00
9139;BME280;4604;48.616;9.548;2022-09-01T02:21:26;97118.94;;;15.34;100.00
9139;BME280;4604;48.616;9.548;2022-09-01T02:23:54;97113.94;;;15.31;100.00
9139;BME280;4604;48.616;9.548;2022-09-01T02:26:24;97115.91;;;15.29;100.00
9139;BME280;4604;48.616;9.548;2022-09-01T02:28:54;97102.31;;;15.40;100.00
9139;BME280;4604;48.616;9.548;2022-09-01T02:31:21;97112.97;;;15.32;100.00
9139;BME280;4604;48.616;9.548;2022-09-01T02:33:49;97111.13;;;15.24;100.00
9139;BME280;4604;48.616;9.548;2022-09-01T02:36:19;97104.94;;;15.24;100.00
9139;BME280;4604;48.616;9.548;2022-09-01T02:38:47;97107.44;;;15.25;100.00
9139;BME280;4604;48.616;9.548;2022-09-01T02:41:16;97104.94;;;15.24;100.00
9139;BME280;4604;48.616;9.548;2022-09-01T02:43:47;97105.44;;;15.19;100.00
9139;BME280;4604;48.616;9.548;2022-09-01T02:46:15;97100.13;;;15.19;100.00
9139;BME280;4604;48.616;9.548;2022-09-01T02:48:43;97101.13;;;15.18;100.00
9139;BME280;4604;48.616;9.548;2022-09-01T02:51:13;97075.66;;;14.99;100.00
9139;BME280;4604;48.616;9.548;2022-09-01T02:53:41;97102.78;;;15.11;100.00
9139;BME280;4604;48.616;9.548;2022-09-01T02:56:10;97094.94;;;15.01;100.00
9139;BME280;4604;48.616;9.548;2022-09-01T02:58:40;97101.59;;;15.05;100.00
9139;BME280;4604;48.616;9.548;2022-09-01T03:01:12;97112.25;;;15.13;100.00
9139;BME280;4604;48.616;9.548;2022-09-01T03:03:46;97104.28;;;15.13;100.00
9139;BME280;4604;48.616;9.548;2022-09-01T03:06:14;97094.78;;;15.19;100.00
9139;BME280;4604;48.616;9.548;2022-09-01T03:08:48;97105.00;;;15.56;100.00
9139;BME280;4604;48.616;9.548;2022-09-01T03:11:15;97103.47;;;15.37;100.00
9139;BME280;4604;48.616;9.548;2022-09-01T03:13:43;97102.66;;;15.45;100.00
9139;BME280;4604;48.616;9.548;2022-09-01T03:16:10;97103.16;;;15.49;100.00
9139;BME280;4604;48.616;9.548;2022-09-01T03:18:38;97100.31;;;15.34;100.00
9139;BME280;4604;48.616;9.548;2022-09-01T03:21:05;97096.66;;;15.27;100.00
9139;BME280;4604;48.616;9.548;2022-09-01T03:23:34;97096.81;;;15.25;100.00
9139;BME280;4604;48.616;9.548;2022-09-01T03:26:02;97097.63;;;15.26;100.00
9139;BME280;4604;48.616;9.548;2022-09-01T03:28:29;97099.28;;;15.18;100.00
9139;BME280;4604;48.616;9.548;2022-09-01T03:30:57;97100.31;;;15.17;100.00
9139;BME280;4604;48.616;9.548;2022-09-01T03:33:25;97105.28;;;15.12;100.00
9139;BME280;4604;48.616;9.548;2022-09-01T03:35:53;97109.59;;;15.13;100.00
9139;BME280;4604;48.616;9.548;2022-09-01T03:38:20;97099.28;;;15.10;100.00
9139;BME280;4604;48.616;9.548;2022-09-01T03:40:51;97100.94;;;15.03;100.00
9139;BME280;4604;48.616;9.548;2022-09-01T03:43:19;97077.16;;;14.85;100.00
9139;BME280;4604;48.616;9.548;2022-09-01T03:45:49;97098.91;;;14.97;100.00
9139;BME280;4604;48.616;9.548;2022-09-01T03:48:16;97089.09;;;14.89;100.00
9139;BME280;4604;48.616;9.548;2022-09-01T03:50:44;97102.09;;;14.92;100.00
9139;BME280;4604;48.616;9.548;2022-09-01T03:53:13;97101.56;;;14.89;100.00
9139;BME280;4604;48.616;9.548;2022-09-01T03:55:42;97095.56;;;14.87;100.00
9139;BME280;4604;48.616;9.548;2022-09-01T03:58:12;97101.88;;;14.86;100.00
9139;BME280;4604;48.616;9.548;2022-09-01T04:00:46;97100.22;;;14.85;100.00
9139;BME280;4604;48.616;9.548;2022-09-01T04:03:14;97089.28;;;14.88;100.00
9139;BME280;4604;48.616;9.548;2022-09-01T04:05:46;97096.09;;;14.90;100.00
9139;BME280;4604;48.616;9.548;2022-09-01T04:08:14;97095.75;;;14.93;100.00
9139;BME280;4604;48.616;9.548;2022-09-01T04:10:44;97092.09;;;14.94;100.00
9139;BME280;4604;48.616;9.548;2022-09-01T04:13:13;97095.28;;;14.98;100.00
9139;BME280;4604;48.616;9.548;2022-09-01T04:15:40;97084.13;;;14.94;100.00
9139;BME280;4604;48.616;9.548;2022-09-01T04:18:07;97092.97;;;15.03;100.00
9139;BME280;4604;48.616;9.548;2022-09-01T04:20:37;97098.44;;;15.02;100.00
9139;BME280;4604;48.616;9.548;2022-09-01T04:23:15;97097.59;;;15.01;100.00
9139;BME280;4604;48.616;9.548;2022-09-01T04:25:51;97093.78;;;15.04;100.00
9139;BME280;4604;48.616;9.548;2022-09-01T04:28:22;97090.63;;;15.00;100.00
9139;BME280;4604;48.616;9.548;2022-09-01T04:30:54;97096.78;;;15.01;100.00
9139;BME280;4604;48.616;9.548;2022-09-01T04:33:23;97097.59;;;15.01;100.00
9139;BME280;4604;48.616;9.548;2022-09-01T04:35:50;97091.13;;;15.04;100.00
9139;BME280;4604;48.616;9.548;2022-09-01T04:38:20;97083.63;;;14.91;100.00
9139;BME280;4604;48.616;9.548;2022-09-01T04:40:47;97086.63;;;14.96;100.00
9139;BME280;4604;48.616;9.548;2022-09-01T04:43:15;97072.19;;;14.90;100.00
9139;BME280;4604;48.616;9.548;2022-09-01T04:45:45;97098.63;;;15.08;100.00
9139;BME280;4604;48.616;9.548;2022-09-01T04:48:13;97092.66;;;15.14;100.00
9139;BME280;4604;48.616;9.548;2022-09-01T04:50:40;97091.81;;;15.14;100.00
9139;BME280;4604;48.616;9.548;2022-09-01T04:53:07;97077.00;;;15.11;100.00
9139;BME280;4604;48.616;9.548;2022-09-01T04:55:38;97093.00;;;15.19;100.00
9139;BME280;4604;48.616;9.548;2022-09-01T04:58:05;97096.63;;;15.18;100.00
9139;BME280;4604;48.616;9.548;2022-09-01T05:00:32;97090.81;;;15.23;100.00
9139;BME280;4604;48.616;9.548;2022-09-01T05:03:02;97104.13;;;15.31;100.00
9139;BME280;4604;48.616;9.548;2022-09-01T05:05:36;97093.47;;;15.31;100.00
9139;BME280;4604;48.616;9.548;2022-09-01T05:08:07;97102.66;;;15.37;100.00
9139;BME280;4604;48.616;9.548;2022-09-01T05:10:39;97091.34;;;15.35;100.00
9139;BME280;4604;48.616;9.548;2022-09-01T05:13:08;97091.19;;;15.36;100.00
9139;BME280;4604;48.616;9.548;2022-09-01T05:15:37;97100.66;;;15.39;100.00
9139;BME280;4604;48.616;9.548;2022-09-01T05:18:13;97100.31;;;15.42;100.00
9139;BME280;4604;48.616;9.548;2022-09-01T05:20:41;97105.50;;;15.44;100.00
9139;BME280;4604;48.616;9.548;2022-09-01T05:23:10;97107.47;;;15.50;100.00
9139;BME280;4604;48.616;9.548;2022-09-01T05:25:42;97104.31;;;15.54;100.00
9139;BME280;4604;48.616;9.548;2022-09-01T05:28:11;97092.69;;;15.47;100.00
9139;BME280;4604;48.616;9.548;2022-09-01T05:30:39;97108.31;;;15.58;100.00
9139;BME280;4604;48.616;9.548;2022-09-01T05:33:08;97104.31;;;15.54;100.00
9139;BME280;4604;48.616;9.548;2022-09-01T05:35:38;97100.84;;;15.54;100.00
9139;BME280;4604;48.616;9.548;2022-09-01T05:38:10;97095.03;;;15.58;100.00
9139;BME280;4604;48.616;9.548;2022-09-01T05:40:41;97090.53;;;15.59;100.00
9139;BME280;4604;48.616;9.548;2022-09-01T05:43:09;97098.34;;;15.69;100.00
9139;BME280;4604;48.616;9.548;2022-09-01T05:45:38;97109.00;;;15.77;100.00
9139;BME280;4604;48.616;9.548;2022-09-01T05:48:07;97102.34;;;15.81;100.00
9139;BME280;4604;48.616;9.548;2022-09-01T05:50:34;97103.50;;;15.87;100.00
9139;BME280;4604;48.616;9.548;2022-09-01T05:53:06;97094.69;;;15.86;100.00
9139;BME280;4604;48.616;9.548;2022-09-01T05:55:36;97106.50;;;16.00;100.00
9139;BME280;4604;48.616;9.548;2022-09-01T05:58:03;97083.03;;;15.95;100.00
9139;BME280;4604;48.616;9.548;2022-09-01T06:00:29;97103.78;;;16.16;100.00
9139;BME280;4604;48.616;9.548;2022-09-01T06:02:59;97102.91;;;16.24;100.00
9139;BME280;4604;48.616;9.548;2022-09-01T06:05:28;97099.91;;;16.35;100.00
9139;BME280;4604;48.616;9.548;2022-09-01T06:07:56;97098.38;;;16.41;100.00
9139;BME280;4604;48.616;9.548;2022-09-01T06:10:24;97096.78;;;16.63;100.00
9139;BME280;4604;48.616;9.548;2022-09-01T06:12:51;97081.25;;;16.75;100.00
9139;BME280;4604;48.616;9.548;2022-09-01T06:15:18;97086.91;;;16.88;100.00
9139;BME280;4604;48.616;9.548;2022-09-01T06:17:45;97101.19;;;16.95;100.00
9139;BME280;4604;48.616;9.548;2022-09-01T06:20:12;97101.66;;;16.99;100.00
9139;BME280;4604;48.616;9.548;2022-09-01T06:22:42;97099.13;;;17.05;100.00
9139;BME280;4604;48.616;9.548;2022-09-01T06:25:09;97097.38;;;17.21;100.00
9139;BME280;4604;48.616;9.548;2022-09-01T06:27:37;97095.94;;;17.10;100.00
9139;BME280;4604;48.616;9.548;2022-09-01T06:30:06;97103.16;;;17.01;100.00
9139;BME280;4604;48.616;9.548;2022-09-01T06:32:39;97108.22;;;17.19;100.00
9139;BME280;4604;48.616;9.548;2022-09-01T06:35:08;97106.38;;;17.20;100.00
9139;BME280;4604;48.616;9.548;2022-09-01T06:37:36;97101.81;;;17.28;100.00
9139;BME280;4604;48.616;9.548;2022-09-01T06:40:04;97111.31;;;17.54;100.00
9139;BME280;4604;48.616;9.548;2022-09-01T06:42:34;97106.28;;;17.97;100.00
9139;BME280;4604;48.616;9.548;2022-09-01T06:45:04;97111.56;;;18.05;100.00
9139;BME280;4604;48.616;9.548;2022-09-01T06:47:34;97110.31;;;18.31;100.00
9139;BME280;4604;48.616;9.548;2022-09-01T06:50:01;97110.13;;;18.62;97.59
9139;BME280;4604;48.616;9.548;2022-09-01T06:52:28;97112.50;;;18.72;98.44
9139;BME280;4604;48.616;9.548;2022-09-01T06:54:55;97107.38;;;18.85;91.59
9139;BME280;4604;48.616;9.548;2022-09-01T06:57:22;97114.19;;;18.88;88.29
9139;BME280;4604;48.616;9.548;2022-09-01T06:59:50;97111.69;;;18.86;90.04
9139;BME280;4604;48.616;9.548;2022-09-01T07:02:19;97116.56;;;18.97;86.18
9139;BME280;4604;48.616;9.548;2022-09-01T07:04:46;97116.38;;;18.99;88.00
9139;BME280;4604;48.616;9.548;2022-09-01T07:07:14;97116.50;;;19.27;81.90
9139;BME280;4604;48.616;9.548;2022-09-01T07:09:41;97121.59;;;19.22;80.04
9139;BME280;4604;48.616;9.548;2022-09-01T07:12:08;97122.50;;;19.29;81.44
9139;BME280;4604;48.616;9.548;2022-09-01T07:14:35;97115.09;;;19.31;76.53
9139;BME280;4604;48.616;9.548;2022-09-01T07:17:01;97105.94;;;19.04;77.05
9139;BME280;4604;48.616;9.548;2022-09-01T07:19:30;97121.66;;;18.92;81.50
9139;BME280;4604;48.616;9.548;2022-09-01T07:21:57;97124.22;;;19.00;79.08
9139;BME280;4604;48.616;9.548;2022-09-01T07:24:24;97126.13;;;19.07;78.05
9139;BME280;4604;48.616;9.548;2022-09-01T07:26:51;97128.78;;;18.85;78.56
9139;BME280;4604;48.616;9.548;2022-09-01T07:29:17;97125.59;;;18.67;81.00
9139;BME280;4604;48.616;9.548;2022-09-01T07:31:47;97132.69;;;18.74;83.19
9139;BME280;4604;48.616;9.548;2022-09-01T07:34:14;97128.38;;;18.88;82.57
9139;BME280;4604;48.616;9.548;2022-09-01T07:36:43;97107.09;;;18.80;81.72
9139;BME280;4604;48.616;9.548;2022-09-01T07:39:11;97140.91;;;19.02;81.78
9139;BME280;4604;48.616;9.548;2022-09-01T07:41:39;97149.47;;;19.13;80.93
9139;BME280;4604;48.616;9.548;2022-09-01T07:44:08;97145.03;;;19.20;79.96
9139;BME280;4604;48.616;9.548;2022-09-01T07:46:38;97153.13;;;19.27;79.19
9139;BME280;4604;48.616;9.548;2022-09-01T07:49:05;97152.09;;;19.28;80.03
9139;BME280;4604;48.616;9.548;2022-09-01T07:51:32;97161.22;;;19.33;80.49
9139;BME280;4604;48.616;9.548;2022-09-01T07:54:01;97161.38;;;19.46;78.01
9139;BME280;4604;48.616;9.548;2022-09-01T07:56:28;97156.41;;;19.43;76.94
9139;BME280;4604;48.616;9.548;2022-09-01T07:58:56;97157.03;;;19.45;77.59
9139;BME280;4604;48.616;9.548;2022-09-01T08:01:25;97157.41;;;19.42;78.32
9139;BME280;4604;48.616;9.548;2022-09-01T08:03:54;97164.63;;;19.42;79.03
9139;BME280;4604;48.616;9.548;2022-09-01T08:06:23;97162.94;;;19.56;75.12
9139;BME280;4604;48.616;9.548;2022-09-01T08:08:52;97169.16;;;19.41;77.18
9139;BME280;4604;48.616;9.548;2022-09-01T08:11:22;97151.94;;;19.29;79.31
9139;BME280;4604;48.616;9.548;2022-09-01T08:13:49;97168.13;;;19.42;79.01
9139;BME280;4604;48.616;9.548;2022-09-01T08:16:16;97178.91;;;19.49;79.20
9139;BME280;4604;48.616;9.548;2022-09-01T08:18:44;97170.38;;;19.60;78.54
9139;BME280;4604;48.616;9.548;2022-09-01T08:21:13;97168.25;;;19.71;76.55
9139;BME280;4604;48.616;9.548;2022-09-01T08:23:40;97162.75;;;19.79;76.50
9139;BME280;4604;48.616;9.548;2022-09-01T08:26:09;97166.97;;;19.88;75.43
9139;BME280;4604;48.616;9.548;2022-09-01T08:28:38;97173.09;;;20.03;74.72
9139;BME280;4604;48.616;9.548;2022-09-01T08:31:06;97154.31;;;20.03;73.22
9139;BME280;4604;48.616;9.548;2022-09-01T08:33:35;97166.31;;;20.07;73.57
9139;BME280;4604;48.616;9.548;2022-09-01T08:36:02;97157.19;;;20.02;74.37
9139;BME280;4604;48.616;9.548;2022-09-01T08:38:28;97175.75;;;20.25;72.74
9139;BME280;4604;48.616;9.548;2022-09-01T08:40:56;97182.75;;;20.26;71.01
9139;BME280;4604;48.616;9.548;2022-09-01T08:43:35;97180.91;;;20.26;69.29
9139;BME280;4604;48.616;9.548;2022-09-01T08:46:11;97188.31;;;20.24;68.40
9139;BME280;4604;48.616;9.548;2022-09-01T08:48:41;97184.38;;;19.99;70.18
9139;BME280;4604;48.616;9.548;2022-09-01T08:51:14;97177.06;;;20.14;69.11
9139;BME280;4604;48.616;9.548;2022-09-01T08:53:46;97172.75;;;19.92;71.63
9139;BME280;4604;48.616;9.548;2022-09-01T08:56:17;97185.91;;;20.08;70.71
9139;BME280;4604;48.616;9.548;2022-09-01T08:58:44;97186.03;;;20.00;71.99
9139;BME280;4604;48.616;9.548;2022-09-01T09:01:17;97179.00;;;20.20;70.69
9139;BME280;4604;48.616;9.548;2022-09-01T09:03:59;97191.44;;;20.28;69.85
9139;BME280;4604;48.616;9.548;2022-09-01T09:06:36;97188.00;;;20.13;71.59
9139;BME280;4604;48.616;9.548;2022-09-01T09:09:08;97191.38;;;20.21;72.59
9139;BME280;4604;48.616;9.548;2022-09-01T09:11:57;97179.81;;;20.21;72.70
9139;BME280;4604;48.616;9.548;2022-09-01T09:14:44;97183.25;;;20.36;71.10
9139;BME280;4604;48.616;9.548;2022-09-01T09:17:20;97182.06;;;20.45;71.14
9139;BME280;4604;48.616;9.548;2022-09-01T09:19:49;97188.88;;;20.48;67.67
9139;BME280;4604;48.616;9.548;2022-09-01T09:22:18;97188.31;;;20.52;67.66
9139;BME280;4604;48.616;9.548;2022-09-01T09:24:49;97191.56;;;20.48;69.04
9139;BME280;4604;48.616;9.548;2022-09-01T09:27:18;97183.22;;;20.58;68.53
9139;BME280;4604;48.616;9.548;2022-09-01T09:29:46;97179.53;;;20.65;66.80
9139;BME280;4604;48.616;9.548;2022-09-01T09:32:12;97188.47;;;20.72;66.73
9139;BME280;4604;48.616;9.548;2022-09-01T09:34:41;97178.00;;;20.84;66.28
9139;BME280;4604;48.616;9.548;2022-09-01T09:37:23;97185.53;;;20.67;67.37
9139;BME280;4604;48.616;9.548;2022-09-01T09:40:09;97187.22;;;20.68;66.81
9139;BME280;4604;48.616;9.548;2022-09-01T09:42:37;97181.94;;;20.53;68.11
9139;BME280;4604;48.616;9.548;2022-09-01T09:45:05;97190.66;;;20.62;68.65
9139;BME280;4604;48.616;9.548;2022-09-01T09:47:36;97194.47;;;20.74;68.70
9139;BME280;4604;48.616;9.548;2022-09-01T09:50:15;97182.94;;;20.52;69.35
9139;BME280;4604;48.616;9.548;2022-09-01T09:52:43;97188.31;;;20.52;70.09
9139;BME280;4604;48.616;9.548;2022-09-01T09:55:23;97181.41;;;20.65;67.64
9139;BME280;4604;48.616;9.548;2022-09-01T09:57:53;97179.59;;;20.72;67.87
9139;BME280;4604;48.616;9.548;2022-09-01T10:00:22;97181.16;;;20.94;66.92
9139;BME280;4604;48.616;9.548;2022-09-01T10:02:55;97186.00;;;21.12;66.10
9139;BME280;4604;48.616;9.548;2022-09-01T10:05:35;97183.00;;;21.29;62.21
9139;BME280;4604;48.616;9.548;2022-09-01T10:08:03;97179.00;;;21.18;63.22
9139;BME280;4604;48.616;9.548;2022-09-01T10:10:37;97186.69;;;21.28;63.57
9139;BME280;4604;48.616;9.548;2022-09-01T10:13:09;97180.78;;;21.46;63.60
9139;BME280;4604;48.616;9.548;2022-09-01T10:15:37;97182.88;;;21.44;63.71
9139;BME280;4604;48.616;9.548;2022-09-01T10:18:08;97190.91;;;21.44;63.80
9139;BME280;4604;48.616;9.548;2022-09-01T10:20:45;97184.72;;;21.50;64.24
9139;BME280;4604;48.616;9.548;2022-09-01T10:23:14;97186.16;;;21.46;63.67
9139;BME280;4604;48.616;9.548;2022-09-01T10:25:41;97182.88;;;21.57;63.23
9139;BME280;4604;48.616;9.548;2022-09-01T10:28:14;97184.56;;;21.71;62.80
9139;BME280;4604;48.616;9.548;2022-09-01T10:30:43;97186.69;;;21.83;62.84
9139;BME280;4604;48.616;9.548;2022-09-01T10:33:14;97177.38;;;21.98;62.34
9139;BME280;4604;48.616;9.548;2022-09-01T10:35:44;97187.94;;;22.13;60.97
9139;BME280;4604;48.616;9.548;2022-09-01T10:38:15;97173.03;;;22.04;60.07
9139;BME280;4604;48.616;9.548;2022-09-01T10:40:43;97177.59;;;22.04;60.06
9139;BME280;4604;48.616;9.548;2022-09-01T10:43:40;97169.09;;;22.07;59.61
9139;BME280;4604;48.616;9.548;2022-09-01T10:46:16;97174.06;;;21.96;60.46
9139;BME280;4604;48.616;9.548;2022-09-01T10:49:00;97168.28;;;22.06;59.60
9139;BME280;4604;48.616;9.548;2022-09-01T10:51:45;97163.75;;;22.13;59.96
9139;BME280;4604;48.616;9.548;2022-09-01T10:54:55;97166.25;;;22.28;59.45
9139;BME280;4604;48.616;9.548;2022-09-01T10:57:41;97168.09;;;22.41;59.82
9139;BME280;4604;48.616;9.548;2022-09-01T11:00:42;97171.84;;;22.27;58.91
9139;BME280;4604;48.616;9.548;2022-09-01T11:03:32;97167.44;;;22.19;59.35
9139;BME280;4604;48.616;9.548;2022-09-01T11:06:02;97173.25;;;21.96;61.09
9139;BME280;4604;48.616;9.548;2022-09-01T11:08:45;97157.94;;;21.83;61.54
9139;BME280;4604;48.616;9.548;2022-09-01T11:11:24;97165.19;;;21.83;60.98
9139;BME280;4604;48.616;9.548;2022-09-01T11:13:54;97167.00;;;21.69;62.17
9139;BME280;4604;48.616;9.548;2022-09-01T11:16:29;97163.09;;;21.91;62.29
9139;BME280;4604;48.616;9.548;2022-09-01T11:22:10;97151.31;;;21.66;62.49
9139;BME280;4604;48.616;9.548;2022-09-01T11:24:49;97149.19;;;21.48;63.46
9139;BME280;4604;48.616;9.548;2022-09-01T11:27:54;97147.75;;;21.52;63.68
9139;BME280;4604;48.616;9.548;2022-09-01T11:30:23;97150.69;;;21.70;62.96
9139;BME280;4604;48.616;9.548;2022-09-01T11:33:04;97148.47;;;22.20;61.78
9139;BME280;4604;48.616;9.548;2022-09-01T11:35:37;97145.13;;;22.38;60.62
9139;BME280;4604;48.616;9.548;2022-09-01T11:38:06;97143.03;;;22.60;58.95
9139;BME280;4604;48.616;9.548;2022-09-01T11:40:36;97149.47;;;22.53;58.29
9139;BME280;4604;48.616;9.548;2022-09-01T11:43:05;97140.13;;;22.55;58.63
9139;BME280;4604;48.616;9.548;2022-09-01T11:45:36;97137.63;;;22.74;57.11
9139;BME280;4604;48.616;9.548;2022-09-01T11:48:09;97141.13;;;22.88;56.37
9139;BME280;4604;48.616;9.548;2022-09-01T11:50:38;97114.38;;;22.99;56.58
9139;BME280;4604;48.616;9.548;2022-09-01T11:53:07;97129.75;;;23.31;55.87
9139;BME280;4604;48.616;9.548;2022-09-01T11:55:38;97112.91;;;23.48;54.68
9139;BME280;4604;48.616;9.548;2022-09-01T11:58:05;97126.63;;;23.72;53.81
9139;BME280;4604;48.616;9.548;2022-09-01T12:00:37;97121.31;;;23.97;54.15
9139;BME280;4604;48.616;9.548;2022-09-01T12:03:17;97117.31;;;24.25;53.67
9139;BME280;4604;48.616;9.548;2022-09-01T12:05:45;97113.59;;;24.51;52.66
9139;BME280;4604;48.616;9.548;2022-09-01T12:08:15;97131.34;;;24.59;50.97
9139;BME280;4604;48.616;9.548;2022-09-01T12:10:45;97125.88;;;24.40;50.08
9139;BME280;4604;48.616;9.548;2022-09-01T12:13:17;97132.41;;;24.07;51.52
9139;BME280;4604;48.616;9.548;2022-09-01T12:15:52;97115.66;;;23.99;51.60
9139;BME280;4604;48.616;9.548;2022-09-01T12:18:22;97124.41;;;23.94;51.84
9139;BME280;4604;48.616;9.548;2022-09-01T12:20:50;97124.53;;;24.06;52.40
9139;BME280;4604;48.616;9.548;2022-09-01T12:23:24;97118.69;;;23.84;52.46
9139;BME280;4604;48.616;9.548;2022-09-01T12:25:53;97120.31;;;23.85;50.59
9139;BME280;4604;48.616;9.548;2022-09-01T12:28:21;97124.78;;;23.34;51.54
9139;BME280;4604;48.616;9.548;2022-09-01T12:30:49;97125.31;;;23.11;53.46
9139;BME280;4604;48.616;9.548;2022-09-01T12:33:18;97122.59;;;23.11;53.98
9139;BME280;4604;48.616;9.548;2022-09-01T12:35:46;97126.34;;;23.10;53.42
9139;BME280;4604;48.616;9.548;2022-09-01T12:38:24;97132.53;;;23.17;52.92
9139;BME280;4604;48.616;9.548;2022-09-01T12:40:54;97123.25;;;23.06;52.30
9139;BME280;4604;48.616;9.548;2022-09-01T12:43:29;97123.25;;;23.06;53.70
9139;BME280;4604;48.616;9.548;2022-09-01T12:45:57;97122.31;;;23.26;51.28
9139;BME280;4604;48.616;9.548;2022-09-01T12:48:28;97124.47;;;23.17;52.21
9139;BME280;4604;48.616;9.548;2022-09-01T12:50:57;97120.09;;;23.16;53.20
9139;BME280;4604;48.616;9.548;2022-09-01T12:53:29;97119.00;;;23.31;52.57
9139;BME280;4604;48.616;9.548;2022-09-01T12:56:16;97107.00;;;23.26;53.48
9139;BME280;4604;48.616;9.548;2022-09-01T12:58:48;97114.06;;;23.21;53.97
9139;BME280;4604;48.616;9.548;2022-09-01T13:01:31;97117.19;;;23.24;54.12
9139;BME280;4604;48.616;9.548;2022-09-01T13:04:14;97126.91;;;23.25;55.32
9139;BME280;4604;48.616;9.548;2022-09-01T13:06:49;97118.09;;;23.05;56.13
9139;BME280;4604;48.616;9.548;2022-09-01T13:09:16;97112.06;;;23.10;55.03
9139;BME280;4604;48.616;9.548;2022-09-01T13:11:44;97095.09;;;22.96;55.42
9139;BME280;4604;48.616;9.548;2022-09-01T13:14:13;97121.63;;;22.99;55.22
9139;BME280;4604;48.616;9.548;2022-09-01T13:16:40;97119.59;;;22.81;56.29
9139;BME280;4604;48.616;9.548;2022-09-01T13:19:07;97094.38;;;22.69;56.29
9139;BME280;4604;48.616;9.548;2022-09-01T13:21:35;97111.06;;;22.97;55.33
9139;BME280;4604;48.616;9.548;2022-09-01T13:24:03;97116.03;;;23.00;55.80
9139;BME280;4604;48.616;9.548;2022-09-01T13:26:31;97111.69;;;22.99;54.29
9139;BME280;4604;48.616;9.548;2022-09-01T13:28:59;97092.09;;;22.72;54.20
9139;BME280;4604;48.616;9.548;2022-09-01T13:31:26;97108.63;;;22.82;54.88
9139;BME280;4604;48.616;9.548;2022-09-01T13:33:54;97104.25;;;22.95;55.40
9139;BME280;4604;48.616;9.548;2022-09-01T13:36:20;97107.41;;;23.30;53.61
9139;BME280;4604;48.616;9.548;2022-09-01T13:38:47;97103.13;;;23.54;54.12